sensor_id;sensor_type;location;lat;lon;timestamp;P1;durP1;ratioP1;P2;durP2;ratioP2
12968;SDS011;6549;53.128;8.182;2022-09-30T00:00:12;9.55;;;7.68;;
12968;SDS011;6549;53.128;8.182;2022-09-30T00:03:13;7.28;;;5.70;;
12968;SDS011;6549;53.128;8.182;2022-09-30T00:06:13;7.80;;;6.38;;
12968;SDS011;6549;53.128;8.182;2022-09-30T00:09:14;6.53;;;5.18;;
12968;SDS011;6549;53.128;8.182;2022-09-30T00:12:15;6.70;;;5.75;;
12968;SDS011;6549;53.128;8.182;2022-09-30T00:15:15;7.10;;;5.07;;
12968;SDS011;6549;53.128;8.182;2022-09-30T00:18:16;6.90;;;5.40;;
12968;SDS011;6549;53.128;8.182;2022-09-30T00:21:16;6.70;;;6.00;;
12968;SDS011;6549;53.128;8.182;2022-09-30T00:24:16;6.78;;;5.63;;
12968;SDS011;6549;53.128;8.182;2022-09-30T00:27:17;7.07;;;4.93;;
12968;SDS011;6549;53.128;8.182;2022-09-30T00:30:18;9.90;;;7.90;;
12968;SDS011;6549;53.128;8.182;2022-09-30T00:33:19;8.52;;;7.55;;
12968;SDS011;6549;53.128;8.182;2022-09-30T00:36:20;7.90;;;6.18;;
12968;SDS011;6549;53.128;8.182;2022-09-30T00:39:24;10.15;;;8.63;;
12968;SDS011;6549;53.128;8.182;2022-09-30T00:42:26;9.52;;;8.60;;
12968;SDS011;6549;53.128;8.182;2022-09-30T00:45:29;7.90;;;7.10;;
12968;SDS011;6549;53.128;8.182;2022-09-30T00:48:35;6.97;;;6.00;;
12968;SDS011;6549;53.128;8.182;2022-09-30T00:51:40;8.77;;;7.25;;
12968;SDS011;6549;53.128;8.182;2022-09-30T00:54:44;8.10;;;6.45;;
12968;SDS011;6549;53.128;8.182;2022-09-30T00:57:44;7.82;;;5.80;;
12968;SDS011;6549;53.128;8.182;2022-09-30T01:00:45;6.60;;;4.97;;
12968;SDS011;6549;53.128;8.182;2022-09-30T01:07:16;9.07;;;6.70;;
12968;SDS011;6549;53.128;8.182;2022-09-30T01:10:17;6.53;;;5.82;;
12968;SDS011;6549;53.128;8.182;2022-09-30T01:13:17;7.75;;;6.18;;
12968;SDS011;6549;53.128;8.182;2022-09-30T01:23:08;6.50;;;5.65;;
12968;SDS011;6549;53.128;8.182;2022-09-30T01:33:02;6.90;;;5.70;;
12968;SDS011;6549;53.128;8.182;2022-09-30T01:42:46;7.15;;;6.22;;
12968;SDS011;6549;53.128;8.182;2022-09-30T01:46:02;5.93;;;5.30;;
12968;SDS011;6549;53.128;8.182;2022-09-30T01:49:21;9.88;;;8.25;;
12968;SDS011;6549;53.128;8.182;2022-09-30T01:53:13;7.70;;;6.90;;
12968;SDS011;6549;53.128;8.182;2022-09-30T01:56:02;7.25;;;5.78;;
12968;SDS011;6549;53.128;8.182;2022-09-30T02:02:41;6.43;;;5.30;;
12968;SDS011;6549;53.128;8.182;2022-09-30T02:12:05;7.20;;;5.72;;
12968;SDS011;6549;53.128;8.182;2022-09-30T02:15:08;9.95;;;8.50;;
12968;SDS011;6549;53.128;8.182;2022-09-30T02:18:22;10.18;;;8.05;;
12968;SDS011;6549;53.128;8.182;2022-09-30T02:21:30;7.28;;;5.97;;
12968;SDS011;6549;53.128;8.182;2022-09-30T02:24:35;6.90;;;5.85;;
12968;SDS011;6549;53.128;8.182;2022-09-30T02:27:39;7.22;;;6.07;;
12968;SDS011;6549;53.128;8.182;2022-09-30T02:30:44;8.25;;;6.13;;
12968;SDS011;6549;53.128;8.182;2022-09-30T02:34:08;6.93;;;5.70;;
12968;SDS011;6549;53.128;8.182;2022-09-30T02:37:34;6.78;;;5.60;;
12968;SDS011;6549;53.128;8.182;2022-09-30T02:40:39;7.57;;;6.10;;
12968;SDS011;6549;53.128;8.182;2022-09-30T02:43:47;9.50;;;8.55;;
12968;SDS011;6549;53.128;8.182;2022-09-30T02:53:50;6.65;;;5.53;;
12968;SDS011;6549;53.128;8.182;2022-09-30T02:56:57;7.63;;;6.65;;
12968;SDS011;6549;53.128;8.182;2022-09-30T02:59:59;6.75;;;6.05;;
12968;SDS011;6549;53.128;8.182;2022-09-30T03:03:01;5.68;;;4.88;;
12968;SDS011;6549;53.128;8.182;2022-09-30T03:06:06;6.95;;;5.28;;
12968;SDS011;6549;53.128;8.182;2022-09-30T03:09:07;5.80;;;4.80;;
12968;SDS011;6549;53.128;8.182;2022-09-30T03:12:29;6.93;;;4.82;;
12968;SDS011;6549;53.128;8.182;2022-09-30T03:16:06;10.40;;;8.65;;
12968;SDS011;6549;53.128;8.182;2022-09-30T03:19:16;8.07;;;6.22;;
12968;SDS011;6549;53.128;8.182;2022-09-30T03:26:48;8.63;;;6.80;;
12968;SDS011;6549;53.128;8.182;2022-09-30T03:29:52;9.23;;;8.15;;
12968;SDS011;6549;53.128;8.182;2022-09-30T03:33:08;8.82;;;7.93;;
12968;SDS011;6549;53.128;8.182;2022-09-30T03:39:33;7.38;;;5.95;;
12968;SDS011;6549;53.128;8.182;2022-09-30T03:42:46;7.78;;;6.45;;
12968;SDS011;6549;53.128;8.182;2022-09-30T03:49:19;11.38;;;8.60;;
12968;SDS011;6549;53.128;8.182;2022-09-30T03:52:22;9.23;;;7.40;;
12968;SDS011;6549;53.128;8.182;2022-09-30T03:55:25;7.97;;;6.95;;
12968;SDS011;6549;53.128;8.182;2022-09-30T03:58:27;8.35;;;7.45;;
12968;SDS011;6549;53.128;8.182;2022-09-30T04:01:27;12.48;;;10.98;;
12968;SDS011;6549;53.128;8.182;2022-09-30T04:04:28;9.93;;;8.77;;
12968;SDS011;6549;53.128;8.182;2022-09-30T04:07:28;12.75;;;10.45;;
12968;SDS011;6549;53.128;8.182;2022-09-30T04:10:28;10.93;;;9.65;;
12968;SDS011;6549;53.128;8.182;2022-09-30T04:13:29;11.05;;;8.13;;
12968;SDS011;6549;53.128;8.182;2022-09-30T04:16:30;10.82;;;8.70;;
12968;SDS011;6549;53.128;8.182;2022-09-30T04:19:31;9.25;;;8.25;;
12968;SDS011;6549;53.128;8.182;2022-09-30T04:22:37;8.88;;;6.85;;
12968;SDS011;6549;53.128;8.182;2022-09-30T04:25:37;7.68;;;6.50;;
12968;SDS011;6549;53.128;8.182;2022-09-30T04:28:38;9.27;;;8.07;;
12968;SDS011;6549;53.128;8.182;2022-09-30T04:31:39;8.88;;;7.53;;
12968;SDS011;6549;53.128;8.182;2022-09-30T04:34:39;12.80;;;10.85;;
12968;SDS011;6549;53.128;8.182;2022-09-30T04:37:40;10.65;;;9.50;;
12968;SDS011;6549;53.128;8.182;2022-09-30T04:40:44;10.52;;;8.35;;
12968;SDS011;6549;53.128;8.182;2022-09-30T04:43:45;9.55;;;8.35;;
12968;SDS011;6549;53.128;8.182;2022-09-30T04:46:46;9.38;;;7.65;;
12968;SDS011;6549;53.128;8.182;2022-09-30T04:49:47;12.32;;;9.65;;
12968;SDS011;6549;53.128;8.182;2022-09-30T04:52:47;11.10;;;9.93;;
12968;SDS011;6549;53.128;8.182;2022-09-30T04:55:48;11.68;;;9.63;;
12968;SDS011;6549;53.128;8.182;2022-09-30T04:58:49;13.40;;;11.95;;
12968;SDS011;6549;53.128;8.182;2022-09-30T05:01:50;12.68;;;10.15;;
12968;SDS011;6549;53.128;8.182;2022-09-30T05:04:50;12.23;;;10.23;;
12968;SDS011;6549;53.128;8.182;2022-09-30T05:07:51;15.75;;;11.20;;
12968;SDS011;6549;53.128;8.182;2022-09-30T05:10:55;11.38;;;9.43;;
12968;SDS011;6549;53.128;8.182;2022-09-30T05:13:57;12.65;;;10.43;;
12968;SDS011;6549;53.128;8.182;2022-09-30T05:16:57;11.63;;;9.35;;
12968;SDS011;6549;53.128;8.182;2022-09-30T05:19:58;14.38;;;11.98;;
12968;SDS011;6549;53.128;8.182;2022-09-30T05:22:58;15.88;;;11.48;;
12968;SDS011;6549;53.128;8.182;2022-09-30T05:25:59;10.25;;;9.02;;
12968;SDS011;6549;53.128;8.182;2022-09-30T05:29:00;12.07;;;10.27;;
12968;SDS011;6549;53.128;8.182;2022-09-30T05:32:01;14.32;;;11.48;;
12968;SDS011;6549;53.128;8.182;2022-09-30T05:35:01;11.82;;;10.57;;
12968;SDS011;6549;53.128;8.182;2022-09-30T05:38:02;10.73;;;9.43;;
12968;SDS011;6549;53.128;8.182;2022-09-30T05:41:07;10.27;;;8.85;;
12968;SDS011;6549;53.128;8.182;2022-09-30T05:44:10;8.73;;;7.82;;
12968;SDS011;6549;53.128;8.182;2022-09-30T05:47:10;9.23;;;7.65;;
12968;SDS011;6549;53.128;8.182;2022-09-30T05:50:57;8.60;;;7.35;;
12968;SDS011;6549;53.128;8.182;2022-09-30T05:53:45;9.13;;;7.72;;
12968;SDS011;6549;53.128;8.182;2022-09-30T05:56:46;9.02;;;7.53;;
12968;SDS011;6549;53.128;8.182;2022-09-30T05:59:46;9.65;;;8.60;;
12968;SDS011;6549;53.128;8.182;2022-09-30T06:02:49;9.18;;;7.85;;
12968;SDS011;6549;53.128;8.182;2022-09-30T06:05:56;8.18;;;7.03;;
12968;SDS011;6549;53.128;8.182;2022-09-30T06:08:57;9.60;;;7.22;;
12968;SDS011;6549;53.128;8.182;2022-09-30T06:11:57;10.40;;;8.70;;
12968;SDS011;6549;53.128;8.182;2022-09-30T06:14:59;11.82;;;9.18;;
12968;SDS011;6549;53.128;8.182;2022-09-30T06:17:59;11.27;;;9.15;;
12968;SDS011;6549;53.128;8.182;2022-09-30T06:21:01;11.68;;;9.13;;
12968;SDS011;6549;53.128;8.182;2022-09-30T06:27:02;10.80;;;8.77;;
12968;SDS011;6549;53.128;8.182;2022-09-30T06:30:04;16.33;;;13.35;;
12968;SDS011;6549;53.128;8.182;2022-09-30T06:33:05;15.33;;;13.37;;
12968;SDS011;6549;53.128;8.182;2022-09-30T06:36:05;10.60;;;9.45;;
12968;SDS011;6549;53.128;8.182;2022-09-30T06:39:06;8.32;;;6.97;;
12968;SDS011;6549;53.128;8.182;2022-09-30T06:42:06;9.23;;;7.85;;
12968;SDS011;6549;53.128;8.182;2022-09-30T06:45:07;12.70;;;11.32;;
12968;SDS011;6549;53.128;8.182;2022-09-30T06:48:08;15.57;;;13.70;;
12968;SDS011;6549;53.128;8.182;2022-09-30T06:51:08;15.43;;;13.07;;
12968;SDS011;6549;53.128;8.182;2022-09-30T06:54:10;12.00;;;10.63;;
12968;SDS011;6549;53.128;8.182;2022-09-30T06:57:10;12.30;;;10.98;;
12968;SDS011;6549;53.128;8.182;2022-09-30T07:00:11;12.63;;;10.40;;
12968;SDS011;6549;53.128;8.182;2022-09-30T07:03:23;11.80;;;9.98;;
12968;SDS011;6549;53.128;8.182;2022-09-30T07:06:27;9.75;;;8.82;;
12968;SDS011;6549;53.128;8.182;2022-09-30T07:09:28;10.05;;;8.93;;
12968;SDS011;6549;53.128;8.182;2022-09-30T07:12:28;11.90;;;10.25;;
12968;SDS011;6549;53.128;8.182;2022-09-30T07:15:29;10.77;;;9.65;;
12968;SDS011;6549;53.128;8.182;2022-09-30T07:18:29;16.33;;;14.63;;
12968;SDS011;6549;53.128;8.182;2022-09-30T07:21:29;16.75;;;13.77;;
12968;SDS011;6549;53.128;8.182;2022-09-30T07:24:30;15.18;;;13.02;;
12968;SDS011;6549;53.128;8.182;2022-09-30T07:27:31;17.17;;;12.88;;
12968;SDS011;6549;53.128;8.182;2022-09-30T07:30:32;14.02;;;12.73;;
12968;SDS011;6549;53.128;8.182;2022-09-30T07:33:33;11.50;;;10.27;;
12968;SDS011;6549;53.128;8.182;2022-09-30T07:36:35;12.85;;;10.77;;
12968;SDS011;6549;53.128;8.182;2022-09-30T07:39:39;11.63;;;10.32;;
12968;SDS011;6549;53.128;8.182;2022-09-30T07:42:40;12.13;;;10.65;;
12968;SDS011;6549;53.128;8.182;2022-09-30T07:45:44;10.75;;;9.50;;
12968;SDS011;6549;53.128;8.182;2022-09-30T07:48:45;10.57;;;9.48;;
12968;SDS011;6549;53.128;8.182;2022-09-30T07:51:50;13.40;;;10.27;;
12968;SDS011;6549;53.128;8.182;2022-09-30T07:54:55;12.90;;;11.00;;
12968;SDS011;6549;53.128;8.182;2022-09-30T07:57:55;12.05;;;10.20;;
12968;SDS011;6549;53.128;8.182;2022-09-30T08:00:55;11.68;;;10.18;;
12968;SDS011;6549;53.128;8.182;2022-09-30T08:03:57;11.65;;;9.73;;
12968;SDS011;6549;53.128;8.182;2022-09-30T08:06:59;11.65;;;10.13;;
12968;SDS011;6549;53.128;8.182;2022-09-30T08:10:01;11.57;;;9.30;;
12968;SDS011;6549;53.128;8.182;2022-09-30T08:13:01;10.70;;;9.60;;
12968;SDS011;6549;53.128;8.182;2022-09-30T08:16:02;13.60;;;9.80;;
12968;SDS011;6549;53.128;8.182;2022-09-30T08:19:02;12.27;;;10.75;;
12968;SDS011;6549;53.128;8.182;2022-09-30T08:22:02;13.88;;;10.60;;
12968;SDS011;6549;53.128;8.182;2022-09-30T08:25:03;12.20;;;10.32;;
12968;SDS011;6549;53.128;8.182;2022-09-30T08:28:03;12.50;;;9.65;;
12968;SDS011;6549;53.128;8.182;2022-09-30T08:31:09;9.95;;;8.95;;
12968;SDS011;6549;53.128;8.182;2022-09-30T08:34:11;12.18;;;10.00;;
12968;SDS011;6549;53.128;8.182;2022-09-30T08:37:11;12.15;;;9.45;;
12968;SDS011;6549;53.128;8.182;2022-09-30T08:40:16;13.27;;;9.73;;
12968;SDS011;6549;53.128;8.182;2022-09-30T08:43:31;12.05;;;9.20;;
12968;SDS011;6549;53.128;8.182;2022-09-30T08:50:43;11.57;;;9.23;;
12968;SDS011;6549;53.128;8.182;2022-09-30T08:56:35;11.40;;;8.73;;
12968;SDS011;6549;53.128;8.182;2022-09-30T08:59:37;10.25;;;9.10;;
12968;SDS011;6549;53.128;8.182;2022-09-30T09:06:00;9.25;;;7.88;;
12968;SDS011;6549;53.128;8.182;2022-09-30T09:22:20;8.20;;;7.03;;
12968;SDS011;6549;53.128;8.182;2022-09-30T09:25:23;9.85;;;7.43;;
12968;SDS011;6549;53.128;8.182;2022-09-30T09:28:34;10.07;;;7.88;;
12968;SDS011;6549;53.128;8.182;2022-09-30T09:31:39;13.05;;;8.10;;
12968;SDS011;6549;53.128;8.182;2022-09-30T09:34:39;11.65;;;8.52;;
12968;SDS011;6549;53.128;8.182;2022-09-30T09:47:35;7.80;;;6.93;;
12968;SDS011;6549;53.128;8.182;2022-09-30T09:50:41;9.40;;;7.38;;
12968;SDS011;6549;53.128;8.182;2022-09-30T09:54:00;7.70;;;6.45;;
12968;SDS011;6549;53.128;8.182;2022-09-30T09:57:06;6.63;;;5.43;;
12968;SDS011;6549;53.128;8.182;2022-09-30T10:00:11;7.53;;;5.70;;
12968;SDS011;6549;53.128;8.182;2022-09-30T10:03:41;6.25;;;5.28;;
12968;SDS011;6549;53.128;8.182;2022-09-30T10:06:43;6.70;;;5.18;;
12968;SDS011;6549;53.128;8.182;2022-09-30T10:09:45;7.32;;;5.25;;
12968;SDS011;6549;53.128;8.182;2022-09-30T10:12:46;6.15;;;4.68;;
12968;SDS011;6549;53.128;8.182;2022-09-30T10:15:47;5.97;;;4.47;;
12968;SDS011;6549;53.128;8.182;2022-09-30T10:18:49;8.20;;;5.50;;
12968;SDS011;6549;53.128;8.182;2022-09-30T10:21:50;7.60;;;4.85;;
12968;SDS011;6549;53.128;8.182;2022-09-30T10:28:22;5.72;;;4.65;;
12968;SDS011;6549;53.128;8.182;2022-09-30T10:34:39;5.82;;;4.90;;
12968;SDS011;6549;53.128;8.182;2022-09-30T10:37:48;6.55;;;4.90;;
12968;SDS011;6549;53.128;8.182;2022-09-30T10:40:52;9.32;;;5.20;;
12968;SDS011;6549;53.128;8.182;2022-09-30T10:43:54;9.68;;;5.43;;
12968;SDS011;6549;53.128;8.182;2022-09-30T10:47:00;9.27;;;5.53;;
12968;SDS011;6549;53.128;8.182;2022-09-30T10:50:07;6.57;;;5.60;;
12968;SDS011;6549;53.128;8.182;2022-09-30T10:53:14;6.55;;;4.72;;
12968;SDS011;6549;53.128;8.182;2022-09-30T10:56:39;7.82;;;5.60;;
12968;SDS011;6549;53.128;8.182;2022-09-30T10:59:42;6.25;;;5.13;;
12968;SDS011;6549;53.128;8.182;2022-09-30T11:02:50;6.93;;;4.82;;
12968;SDS011;6549;53.128;8.182;2022-09-30T11:05:57;6.45;;;4.28;;
12968;SDS011;6549;53.128;8.182;2022-09-30T11:09:08;5.63;;;4.10;;
12968;SDS011;6549;53.128;8.182;2022-09-30T11:12:29;5.95;;;4.43;;
12968;SDS011;6549;53.128;8.182;2022-09-30T11:15:46;7.00;;;4.70;;
12968;SDS011;6549;53.128;8.182;2022-09-30T11:19:08;5.57;;;4.32;;
12968;SDS011;6549;53.128;8.182;2022-09-30T11:25:45;5.53;;;4.60;;
12968;SDS011;6549;53.128;8.182;2022-09-30T11:28:58;6.93;;;4.20;;
12968;SDS011;6549;53.128;8.182;2022-09-30T11:32:15;6.35;;;4.13;;
12968;SDS011;6549;53.128;8.182;2022-09-30T11:38:56;5.30;;;4.43;;
12968;SDS011;6549;53.128;8.182;2022-09-30T11:55:57;5.80;;;4.78;;
12968;SDS011;6549;53.128;8.182;2022-09-30T11:59:02;6.00;;;5.00;;
12968;SDS011;6549;53.128;8.182;2022-09-30T12:02:12;6.05;;;4.28;;
12968;SDS011;6549;53.128;8.182;2022-09-30T12:05:44;4.90;;;3.70;;
12968;SDS011;6549;53.128;8.182;2022-09-30T12:08:49;5.20;;;3.90;;
12968;SDS011;6549;53.128;8.182;2022-09-30T12:12:03;7.88;;;5.55;;
12968;SDS011;6549;53.128;8.182;2022-09-30T12:15:11;7.70;;;5.00;;
12968;SDS011;6549;53.128;8.182;2022-09-30T12:18:24;7.03;;;4.70;;
12968;SDS011;6549;53.128;8.182;2022-09-30T12:21:34;5.82;;;4.75;;
12968;SDS011;6549;53.128;8.182;2022-09-30T12:24:40;7.30;;;5.70;;
12968;SDS011;6549;53.128;8.182;2022-09-30T12:27:45;8.32;;;6.55;;
12968;SDS011;6549;53.128;8.182;2022-09-30T12:31:03;10.82;;;6.32;;
12968;SDS011;6549;53.128;8.182;2022-09-30T12:34:31;10.52;;;7.28;;
12968;SDS011;6549;53.128;8.182;2022-09-30T12:37:53;8.18;;;6.50;;
12968;SDS011;6549;53.128;8.182;2022-09-30T12:48:06;9.38;;;6.97;;
12968;SDS011;6549;53.128;8.182;2022-09-30T12:51:11;7.13;;;6.13;;
12968;SDS011;6549;53.128;8.182;2022-09-30T12:54:28;8.52;;;7.13;;
12968;SDS011;6549;53.128;8.182;2022-09-30T12:57:33;7.85;;;6.68;;
12968;SDS011;6549;53.128;8.182;2022-09-30T13:00:37;8.52;;;6.97;;
12968;SDS011;6549;53.128;8.182;2022-09-30T13:13:30;7.75;;;6.95;;
12968;SDS011;6549;53.128;8.182;2022-09-30T13:23:46;8.48;;;6.28;;
12968;SDS011;6549;53.128;8.182;2022-09-30T13:27:04;9.40;;;7.25;;
12968;SDS011;6549;53.128;8.182;2022-09-30T13:30:30;11.85;;;9.38;;
12968;SDS011;6549;53.128;8.182;2022-09-30T13:33:41;11.88;;;10.43;;
12968;SDS011;6549;53.128;8.182;2022-09-30T13:39:51;11.63;;;9.70;;
12968;SDS011;6549;53.128;8.182;2022-09-30T13:42:55;13.48;;;12.07;;
12968;SDS011;6549;53.128;8.182;2022-09-30T13:45:56;12.50;;;11.20;;
12968;SDS011;6549;53.128;8.182;2022-09-30T13:49:10;13.45;;;11.55;;
12968;SDS011;6549;53.128;8.182;2022-09-30T13:52:31;11.90;;;9.27;;
12968;SDS011;6549;53.128;8.182;2022-09-30T13:55:38;13.30;;;11.30;;
12968;SDS011;6549;53.128;8.182;2022-09-30T14:08:35;11.95;;;10.75;;
12968;SDS011;6549;53.128;8.182;2022-09-30T14:11:40;10.40;;;8.55;;
12968;SDS011;6549;53.128;8.182;2022-09-30T14:14:59;14.53;;;9.90;;
12968;SDS011;6549;53.128;8.182;2022-09-30T14:21:49;12.57;;;9.85;;
12968;SDS011;6549;53.128;8.182;2022-09-30T14:24:54;12.60;;;10.07;;
12968;SDS011;6549;53.128;8.182;2022-09-30T14:28:00;12.40;;;10.93;;
12968;SDS011;6549;53.128;8.182;2022-09-30T14:31:04;13.00;;;11.10;;
12968;SDS011;6549;53.128;8.182;2022-09-30T14:34:07;12.07;;;10.50;;
12968;SDS011;6549;53.128;8.182;2022-09-30T14:37:17;12.20;;;9.65;;
12968;SDS011;6549;53.128;8.182;2022-09-30T14:40:26;9.98;;;8.38;;
12968;SDS011;6549;53.128;8.182;2022-09-30T14:43:29;9.60;;;8.45;;
12968;SDS011;6549;53.128;8.182;2022-09-30T14:46:39;11.90;;;9.20;;
12968;SDS011;6549;53.128;8.182;2022-09-30T14:49:46;9.95;;;7.63;;
12968;SDS011;6549;53.128;8.182;2022-09-30T14:52:47;9.77;;;7.15;;
12968;SDS011;6549;53.128;8.182;2022-09-30T14:55:52;9.07;;;7.30;;
12968;SDS011;6549;53.128;8.182;2022-09-30T14:58:53;9.05;;;7.15;;
12968;SDS011;6549;53.128;8.182;2022-09-30T15:01:57;9.32;;;6.95;;
12968;SDS011;6549;53.128;8.182;2022-09-30T15:04:59;8.40;;;6.57;;
12968;SDS011;6549;53.128;8.182;2022-09-30T15:08:15;8.55;;;6.68;;
12968;SDS011;6549;53.128;8.182;2022-09-30T15:11:19;10.60;;;6.63;;
12968;SDS011;6549;53.128;8.182;2022-09-30T15:17:26;8.30;;;6.97;;
12968;SDS011;6549;53.128;8.182;2022-09-30T15:20:35;7.70;;;6.05;;
12968;SDS011;6549;53.128;8.182;2022-09-30T15:23:36;8.18;;;6.80;;
12968;SDS011;6549;53.128;8.182;2022-09-30T15:26:40;7.93;;;6.63;;
12968;SDS011;6549;53.128;8.182;2022-09-30T15:29:55;10.35;;;7.28;;
12968;SDS011;6549;53.128;8.182;2022-09-30T15:33:01;7.95;;;6.00;;
12968;SDS011;6549;53.128;8.182;2022-09-30T15:36:04;9.43;;;6.07;;
12968;SDS011;6549;53.128;8.182;2022-09-30T15:39:21;7.70;;;5.70;;
12968;SDS011;6549;53.128;8.182;2022-09-30T15:42:27;10.77;;;7.20;;
12968;SDS011;6549;53.128;8.182;2022-09-30T15:45:43;9.82;;;6.97;;
12968;SDS011;6549;53.128;8.182;2022-09-30T15:48:47;8.82;;;7.28;;
12968;SDS011;6549;53.128;8.182;2022-09-30T15:51:48;8.52;;;6.55;;
12968;SDS011;6549;53.128;8.182;2022-09-30T15:54:48;10.20;;;7.80;;
12968;SDS011;6549;53.128;8.182;2022-09-30T15:57:49;8.52;;;7.30;;
12968;SDS011;6549;53.128;8.182;2022-09-30T16:00:50;8.55;;;6.80;;
12968;SDS011;6549;53.128;8.182;2022-09-30T16:03:53;9.63;;;7.57;;
12968;SDS011;6549;53.128;8.182;2022-09-30T16:06:56;10.32;;;7.53;;
12968;SDS011;6549;53.128;8.182;2022-09-30T16:09:59;7.80;;;6.15;;
12968;SDS011;6549;53.128;8.182;2022-09-30T16:12:59;8.77;;;6.82;;
12968;SDS011;6549;53.128;8.182;2022-09-30T16:16:03;9.55;;;7.47;;
12968;SDS011;6549;53.128;8.182;2022-09-30T16:19:14;13.18;;;8.52;;
12968;SDS011;6549;53.128;8.182;2022-09-30T16:22:33;7.65;;;6.40;;
12968;SDS011;6549;53.128;8.182;2022-09-30T16:25:40;7.50;;;6.53;;
12968;SDS011;6549;53.128;8.182;2022-09-30T16:28:41;8.02;;;7.00;;
12968;SDS011;6549;53.128;8.182;2022-09-30T16:31:44;9.43;;;7.93;;
12968;SDS011;6549;53.128;8.182;2022-09-30T16:34:47;8.15;;;7.07;;
12968;SDS011;6549;53.128;8.182;2022-09-30T16:37:48;10.15;;;7.97;;
12968;SDS011;6549;53.128;8.182;2022-09-30T16:40:50;8.95;;;7.43;;
12968;SDS011;6549;53.128;8.182;2022-09-30T16:43:50;8.93;;;7.85;;
12968;SDS011;6549;53.128;8.182;2022-09-30T16:46:50;9.82;;;8.70;;
12968;SDS011;6549;53.128;8.182;2022-09-30T16:49:51;9.75;;;7.75;;
12968;SDS011;6549;53.128;8.182;2022-09-30T16:52:51;8.27;;;6.85;;
12968;SDS011;6549;53.128;8.182;2022-09-30T16:55:52;8.77;;;7.50;;
12968;SDS011;6549;53.128;8.182;2022-09-30T16:58:53;8.00;;;7.03;;
12968;SDS011;6549;53.128;8.182;2022-09-30T17:01:53;7.25;;;6.55;;
12968;SDS011;6549;53.128;8.182;2022-09-30T17:04:53;7.25;;;5.72;;
12968;SDS011;6549;53.128;8.182;2022-09-30T17:07:55;10.25;;;8.07;;
12968;SDS011;6549;53.128;8.182;2022-09-30T17:10:57;8.82;;;7.25;;
12968;SDS011;6549;53.128;8.182;2022-09-30T17:13:58;9.25;;;6.50;;
12968;SDS011;6549;53.128;8.182;2022-09-30T17:16:59;11.45;;;8.63;;
12968;SDS011;6549;53.128;8.182;2022-09-30T17:20:00;12.43;;;9.90;;
12968;SDS011;6549;53.128;8.182;2022-09-30T17:23:00;9.80;;;7.35;;
12968;SDS011;6549;53.128;8.182;2022-09-30T17:26:04;10.30;;;8.07;;
12968;SDS011;6549;53.128;8.182;2022-09-30T17:29:05;7.95;;;6.55;;
12968;SDS011;6549;53.128;8.182;2022-09-30T17:32:06;8.20;;;6.75;;
12968;SDS011;6549;53.128;8.182;2022-09-30T17:35:06;11.30;;;8.40;;
12968;SDS011;6549;53.128;8.182;2022-09-30T17:38:08;10.10;;;7.93;;
12968;SDS011;6549;53.128;8.182;2022-09-30T17:41:12;8.30;;;7.40;;
12968;SDS011;6549;53.128;8.182;2022-09-30T17:44:32;10.40;;;8.73;;
12968;SDS011;6549;53.128;8.182;2022-09-30T17:47:33;9.05;;;7.57;;
12968;SDS011;6549;53.128;8.182;2022-09-30T17:50:34;10.00;;;8.40;;
12968;SDS011;6549;53.128;8.182;2022-09-30T17:53:35;8.57;;;7.00;;
12968;SDS011;6549;53.128;8.182;2022-09-30T17:56:37;10.10;;;7.50;;
12968;SDS011;6549;53.128;8.182;2022-09-30T17:59:37;11.38;;;9.02;;
12968;SDS011;6549;53.128;8.182;2022-09-30T18:02:38;10.25;;;8.55;;
12968;SDS011;6549;53.128;8.182;2022-09-30T18:05:39;11.98;;;10.65;;
12968;SDS011;6549;53.128;8.182;2022-09-30T18:08:40;11.48;;;10.27;;
12968;SDS011;6549;53.128;8.182;2022-09-30T18:11:40;12.13;;;9.65;;
12968;SDS011;6549;53.128;8.182;2022-09-30T18:14:40;13.65;;;12.10;;
12968;SDS011;6549;53.128;8.182;2022-09-30T18:17:42;12.75;;;11.25;;
12968;SDS011;6549;53.128;8.182;2022-09-30T18:20:47;11.43;;;10.23;;
12968;SDS011;6549;53.128;8.182;2022-09-30T18:23:52;16.48;;;12.13;;
12968;SDS011;6549;53.128;8.182;2022-09-30T18:26:53;13.18;;;10.27;;
12968;SDS011;6549;53.128;8.182;2022-09-30T18:29:53;10.95;;;9.77;;
12968;SDS011;6549;53.128;8.182;2022-09-30T18:32:54;12.13;;;9.98;;
12968;SDS011;6549;53.128;8.182;2022-09-30T18:35:55;15.55;;;12.98;;
12968;SDS011;6549;53.128;8.182;2022-09-30T18:38:59;13.52;;;11.95;;
12968;SDS011;6549;53.128;8.182;2022-09-30T18:42:01;13.80;;;10.88;;
12968;SDS011;6549;53.128;8.182;2022-09-30T18:45:03;16.63;;;13.38;;
12968;SDS011;6549;53.128;8.182;2022-09-30T18:48:04;13.02;;;11.50;;
12968;SDS011;6549;53.128;8.182;2022-09-30T18:51:06;15.63;;;13.57;;
12968;SDS011;6549;53.128;8.182;2022-09-30T18:54:07;16.02;;;12.85;;
12968;SDS011;6549;53.128;8.182;2022-09-30T18:57:08;14.48;;;12.50;;
12968;SDS011;6549;53.128;8.182;2022-09-30T19:00:09;15.32;;;13.55;;
12968;SDS011;6549;53.128;8.182;2022-09-30T19:03:10;16.57;;;14.07;;
12968;SDS011;6549;53.128;8.182;2022-09-30T19:06:13;13.50;;;12.07;;
12968;SDS011;6549;53.128;8.182;2022-09-30T19:09:14;15.90;;;14.32;;
12968;SDS011;6549;53.128;8.182;2022-09-30T19:12:15;13.90;;;12.38;;
12968;SDS011;6549;53.128;8.182;2022-09-30T19:15:16;18.20;;;14.27;;
12968;SDS011;6549;53.128;8.182;2022-09-30T19:18:17;14.57;;;13.00;;
12968;SDS011;6549;53.128;8.182;2022-09-30T19:21:17;15.57;;;13.77;;
12968;SDS011;6549;53.128;8.182;2022-09-30T19:24:19;17.17;;;13.65;;
12968;SDS011;6549;53.128;8.182;2022-09-30T19:27:19;16.00;;;13.38;;
12968;SDS011;6549;53.128;8.182;2022-09-30T19:30:26;17.90;;;14.27;;
12968;SDS011;6549;53.128;8.182;2022-09-30T19:33:26;14.70;;;12.48;;
12968;SDS011;6549;53.128;8.182;2022-09-30T19:36:26;13.50;;;11.88;;
12968;SDS011;6549;53.128;8.182;2022-09-30T19:39:27;15.27;;;12.30;;
12968;SDS011;6549;53.128;8.182;2022-09-30T19:42:27;14.80;;;12.60;;
12968;SDS011;6549;53.128;8.182;2022-09-30T19:45:28;14.57;;;12.45;;
12968;SDS011;6549;53.128;8.182;2022-09-30T19:48:30;13.50;;;11.75;;
12968;SDS011;6549;53.128;8.182;2022-09-30T19:51:33;15.13;;;12.43;;
12968;SDS011;6549;53.128;8.182;2022-09-30T19:54:33;14.00;;;11.65;;
12968;SDS011;6549;53.128;8.182;2022-09-30T19:57:34;14.60;;;12.13;;
12968;SDS011;6549;53.128;8.182;2022-09-30T20:00:34;16.67;;;12.63;;
12968;SDS011;6549;53.128;8.182;2022-09-30T20:03:34;14.80;;;12.70;;
12968;SDS011;6549;53.128;8.182;2022-09-30T20:06:36;14.60;;;12.02;;
12968;SDS011;6549;53.128;8.182;2022-09-30T20:09:36;13.05;;;11.63;;
12968;SDS011;6549;53.128;8.182;2022-09-30T20:12:36;14.85;;;11.95;;
12968;SDS011;6549;53.128;8.182;2022-09-30T20:15:37;12.15;;;10.50;;
12968;SDS011;6549;53.128;8.182;2022-09-30T20:18:49;15.27;;;11.63;;
12968;SDS011;6549;53.128;8.182;2022-09-30T20:21:50;12.77;;;10.65;;
12968;SDS011;6549;53.128;8.182;2022-09-30T20:24:52;14.18;;;10.90;;
12968;SDS011;6549;53.128;8.182;2022-09-30T20:27:53;13.90;;;11.30;;
12968;SDS011;6549;53.128;8.182;2022-09-30T20:30:53;12.70;;;10.63;;
12968;SDS011;6549;53.128;8.182;2022-09-30T20:33:54;16.73;;;11.05;;
12968;SDS011;6549;53.128;8.182;2022-09-30T20:36:55;14.35;;;11.55;;
12968;SDS011;6549;53.128;8.182;2022-09-30T20:39:55;15.75;;;11.82;;
12968;SDS011;6549;53.128;8.182;2022-09-30T20:42:56;13.60;;;11.35;;
12968;SDS011;6549;53.128;8.182;2022-09-30T20:46:03;13.55;;;11.15;;
12968;SDS011;6549;53.128;8.182;2022-09-30T20:49:07;15.93;;;11.15;;
12968;SDS011;6549;53.128;8.182;2022-09-30T20:52:08;13.32;;;11.13;;
12968;SDS011;6549;53.128;8.182;2022-09-30T20:55:08;15.73;;;11.93;;
12968;SDS011;6549;53.128;8.182;2022-09-30T20:58:10;13.35;;;10.40;;
12968;SDS011;6549;53.128;8.182;2022-09-30T21:01:11;13.27;;;11.18;;
12968;SDS011;6549;53.128;8.182;2022-09-30T21:04:13;13.10;;;10.95;;
12968;SDS011;6549;53.128;8.182;2022-09-30T21:07:13;15.30;;;10.38;;
12968;SDS011;6549;53.128;8.182;2022-09-30T21:10:14;13.75;;;11.48;;
12968;SDS011;6549;53.128;8.182;2022-09-30T21:13:16;14.07;;;10.95;;